Time;durP1;ratioP1;P1;durP2;ratioP2;P2;SDS_P1;SDS_P2;PMS_P1;PMS_P2;Temp;Humidity;BMP_temperature;BMP_pressure;BME280_temperature;BME280_humidity;BME280_pressure;Samples;Min_cycle;Max_cycle;Signal;HPM_P1;HPM_P2
2021/07/12 00:02:15;;;;;;;10.63;7.37;;;;;;;22.56;62.88;100336.98;1852934;77;22151;-57
2021/07/12 00:05:09;;;;;;;8.60;7.30;;;;;;;22.58;62.98;100337.75;1852803;77;22151;-57
2021/07/12 00:07:42;;;;;;;8.33;7.45;;;;;;;22.57;63.05;100345.41;1824812;77;22225;-57
2021/07/12 00:10:35;;;;;;;8.65;7.75;;;;;;;22.58;63.14;100340.43;1819848;77;22179;-57
2021/07/12 00:13:09;;;;;;;8.43;7.12;;;;;;;22.60;63.15;100344.38;1823503;77;22640;-57
2021/07/12 00:15:42;;;;;;;7.92;7.22;;;;;;;22.57;63.18;100346.75;1829182;77;22205;-57
2021/07/12 00:18:15;;;;;;;9.28;7.45;;;;;;;22.61;63.17;100345.59;1818977;77;22190;-58
2021/07/12 00:20:48;;;;;;;8.03;7.22;;;;;;;22.64;63.04;100344.56;1852813;77;22155;-57
2021/07/12 00:23:21;;;;;;;8.93;7.42;;;;;;;22.69;63.05;100349.16;1838545;77;22201;-57
2021/07/12 00:26:14;;;;;;;9.38;7.30;;;;;;;22.75;63.01;100350.58;1831697;77;22164;-57
2021/07/12 00:28:47;;;;;;;8.05;7.00;;;;;;;22.67;63.20;100350.58;1818350;77;22621;-57
2021/07/12 00:31:20;;;;;;;8.35;7.50;;;;;;;22.66;63.34;100348.86;1834498;77;22618;-57
2021/07/12 00:33:53;;;;;;;8.05;7.25;;;;;;;22.68;63.34;100346.09;1827952;77;22180;-56
2021/07/12 00:36:26;;;;;;;8.13;7.28;;;;;;;22.61;63.65;100348.78;1840780;77;22175;-57
2021/07/12 00:39:18;;;;;;;8.45;7.70;;;;;;;22.58;63.75;100345.33;1825450;77;22641;-58
2021/07/12 00:41:53;;;;;;;8.73;7.83;;;;;;;22.57;63.91;100347.62;1834470;77;22179;-57
2021/07/12 00:44:26;;;;;;;8.55;7.67;;;;;;;22.60;63.89;100347.05;1805762;77;22154;-58
2021/07/12 00:47:18;;;;;;;7.85;7.15;;;;;;;22.58;63.92;100351.16;1834446;77;22156;-58
2021/07/12 00:49:51;;;;;;;10.25;7.72;;;;;;;22.55;64.08;100352.69;1834550;77;22200;-57
2021/07/12 00:52:43;;;;;;;8.18;7.37;;;;;;;22.52;64.27;100352.42;1828670;77;22230;-57
2021/07/12 00:55:22;;;;;;;8.63;7.03;;;;;;;22.51;64.18;100357.40;1833740;77;22584;-58
2021/07/12 00:58:18;;;;;;;8.08;7.37;;;;;;;22.51;64.24;100354.72;1821994;77;22598;-57
2021/07/12 01:00:54;;;;;;;10.05;8.40;;;;;;;22.55;64.04;100358.94;1834438;77;22175;-58
2021/07/12 01:03:49;;;;;;;11.35;7.85;;;;;;;22.51;64.17;100353.38;1831568;77;22197;-57
2021/07/12 01:06:41;;;;;;;10.65;7.65;;;;;;;22.48;64.27;100356.25;1834440;77;22140;-58
2021/07/12 01:09:14;;;;;;;9.10;7.55;;;;;;;22.48;64.19;100356.25;1826373;77;22201;-58
2021/07/12 01:12:19;;;;;;;8.80;7.90;;;;;;;22.45;64.23;100352.91;1833604;77;22619;-57
2021/07/12 01:15:16;;;;;;;9.90;7.37;;;;;;;22.41;64.26;100358.89;1834473;77;22179;-57
2021/07/12 01:18:20;;;;;;;8.78;7.97;;;;;;;22.40;64.25;100354.03;1827848;77;22202;-58
2021/07/12 01:21:29;;;;;;;8.83;7.78;;;;;;;22.38;64.31;100356.40;1834514;77;23194;-58
2021/07/12 01:24:51;;;;;;;9.10;8.20;;;;;;;22.34;64.44;100355.74;1809875;77;22579;-58
2021/07/12 01:28:19;;;;;;;8.60;7.80;;;;;;;22.31;64.52;100355.05;1826191;77;22131;-56
2021/07/12 01:31:46;;;;;;;8.50;7.70;;;;;;;22.32;64.45;100353.63;1834436;77;22187;-58
2021/07/12 01:34:29;;;;;;;8.90;7.90;;;;;;;22.34;64.36;100357.09;1806779;77;22226;-58
2021/07/12 01:37:41;;;;;;;9.48;8.20;;;;;;;22.37;64.09;100359.58;1833843;77;22112;-58
2021/07/12 01:40:17;;;;;;;9.73;8.20;;;;;;;22.35;64.29;100358.81;1834445;77;22179;-57
2021/07/12 01:43:20;;;;;;;9.25;7.97;;;;;;;22.26;64.44;100360.72;1811100;77;22647;-57
2021/07/12 01:46:13;;;;;;;8.50;7.65;;;;;;;22.22;64.52;100356.03;1831600;77;22535;-58
2021/07/12 01:49:04;;;;;;;8.35;7.03;;;;;;;22.26;64.43;100356.23;1812806;77;22602;-58
2021/07/12 01:52:16;;;;;;;8.30;7.50;;;;;;;22.21;64.55;100361.02;1847938;77;22175;-58
2021/07/12 01:55:25;;;;;;;10.95;8.60;;;;;;;22.22;64.49;100350.67;1815957;77;22166;-58
2021/07/12 01:58:27;;;;;;;9.33;7.92;;;;;;;22.08;65.01;100362.71;1825827;77;22574;-58
2021/07/12 02:01:01;;;;;;;10.25;8.03;;;;;;;22.04;64.98;100353.13;1831777;77;22140;-58
2021/07/12 02:03:35;;;;;;;9.78;8.35;;;;;;;22.09;65.03;100354.56;1817532;77;22167;-58
2021/07/12 02:06:27;;;;;;;11.05;8.33;;;;;;;22.17;64.77;100346.53;1834429;77;22160;-58
2021/07/12 02:09:00;;;;;;;9.33;8.40;;;;;;;22.18;64.86;100357.64;1805866;77;22225;-58
2021/07/12 02:11:57;;;;;;;9.53;7.50;;;;;;;22.22;64.65;100355.16;1829885;77;22547;-58
2021/07/12 02:14:30;;;;;;;10.95;9.95;;;;;;;22.24;64.55;100354.58;1789723;77;28075;-57
2021/07/12 02:17:05;;;;;;;12.73;8.90;;;;;;;22.25;64.54;100349.14;1831673;77;22143;-58
2021/07/12 02:19:38;;;;;;;9.40;8.58;;;;;;;22.48;63.82;100355.41;1820827;77;22205;-57
2021/07/12 02:22:11;;;;;;;8.93;8.03;;;;;;;22.55;63.44;100345.98;1832917;77;22132;-58
2021/07/12 02:24:46;;;;;;;12.07;8.28;;;;;;;22.56;63.43;100349.93;1910312;74;22587;-58
2021/07/12 02:27:21;;;;;;;9.30;8.10;;;;;;;22.54;63.17;100349.16;1810184;77;22641;-58
2021/07/12 02:30:16;;;;;;;9.08;8.18;;;;;;;22.49;63.26;100351.27;1814140;77;22151;-57
2021/07/12 02:32:49;;;;;;;11.20;8.70;;;;;;;22.35;63.63;100349.89;1827851;77;22206;-58
2021/07/12 02:35:22;;;;;;;9.65;8.75;;;;;;;22.46;63.39;100348.78;1831455;77;22555;-58
2021/07/12 02:38:15;;;;;;;8.85;7.87;;;;;;;22.49;63.36;100339.20;1821982;77;22171;-58
2021/07/12 02:40:48;;;;;;;10.82;8.45;;;;;;;23.48;60.63;100342.70;1828112;77;22576;-58
2021/07/12 02:43:40;;;;;;;9.90;8.80;;;;;;;22.49;63.38;100348.59;1816247;77;22222;-58
2021/07/12 02:46:33;;;;;;;12.30;8.63;;;;;;;22.37;63.84;100347.52;1826638;77;22635;-59
2021/07/12 02:49:09;;;;;;;9.70;8.65;;;;;;;22.64;63.15;100340.05;1826162;77;22609;-58
2021/07/12 02:51:49;;;;;;;9.48;8.58;;;;;;;22.68;63.11;100337.55;1834502;77;22179;-57
2021/07/12 02:54:33;;;;;;;9.68;8.68;;;;;;;22.70;63.09;100333.45;1817012;77;22194;-57
2021/07/12 02:57:06;;;;;;;9.60;8.70;;;;;;;22.71;63.12;100332.48;1834512;77;22159;-57
2021/07/12 02:59:59;;;;;;;9.60;8.65;;;;;;;22.76;63.12;100334.36;1827880;77;22139;-56
2021/07/12 03:02:32;;;;;;;10.13;9.10;;;;;;;22.78;63.22;100345.86;1829214;77;22162;-57
2021/07/12 03:05:24;;;;;;;9.25;8.28;;;;;;;22.93;62.93;100342.69;1852774;77;22685;-57
2021/07/12 03:08:35;;;;;;;12.43;8.68;;;;;;;22.99;62.81;100336.90;1825066;77;22183;-58
2021/07/12 03:11:09;;;;;;;11.35;8.13;;;;;;;22.95;63.02;100339.43;1834464;77;22136;-57
2021/07/12 03:13:55;;;;;;;9.68;8.63;;;;;;;23.02;63.02;100334.52;1813530;77;22222;-57
2021/07/12 03:16:28;;;;;;;9.48;8.48;;;;;;;23.00;63.15;100339.97;1852847;77;22120;-58
2021/07/12 03:19:02;;;;;;;9.68;8.68;;;;;;;23.03;63.28;100345.13;1806200;77;22225;-57
2021/07/12 03:21:58;;;;;;;10.32;9.18;;;;;;;23.11;63.29;100335.72;1813587;77;22582;-57
2021/07/12 03:24:31;;;;;;;10.15;9.25;;;;;;;23.22;63.02;100343.97;1822412;77;22201;-58
2021/07/12 03:27:25;;;;;;;10.55;9.48;;;;;;;23.18;63.30;100345.95;1819445;77;22171;-56
2021/07/12 03:30:01;;;;;;;9.88;8.88;;;;;;;22.97;64.09;100350.05;1833672;77;22583;-58
2021/07/12 03:32:34;;;;;;;12.88;11.03;;;;;;;23.03;64.12;100350.50;1815600;77;27989;-57
2021/07/12 03:38:20;;;;;;;9.85;8.93;;;;;;;23.24;64.08;100347.41;1820520;77;22210;-58
2021/07/12 03:41:13;;;;;;;9.63;8.78;;;;;;;23.33;64.12;100348.62;1852838;77;22124;-59
2021/07/12 03:43:47;;;;;;;15.65;8.78;;;;;;;23.27;64.35;100344.53;1814815;77;22649;-58
2021/07/12 03:46:20;;;;;;;11.70;9.25;;;;;;;23.37;64.35;100350.14;1844699;77;22162;-59
2021/07/12 03:48:53;;;;;;;9.53;8.68;;;;;;;23.44;64.36;100350.58;1813350;77;22206;-58
2021/07/12 03:51:27;;;;;;;9.78;8.78;;;;;;;23.59;63.96;100344.69;1834503;77;22576;-58
2021/07/12 03:54:00;;;;;;;10.32;9.30;;;;;;;23.67;63.86;100353.06;1811678;77;22606;-59
2021/07/12 03:56:52;;;;;;;10.70;8.60;;;;;;;23.75;63.75;100353.41;1833661;77;22124;-59
2021/07/12 03:59:26;;;;;;;9.95;9.05;;;;;;;23.86;63.59;100355.84;1806081;77;22202;-58
2021/07/12 04:02:18;;;;;;;11.83;9.60;;;;;;;23.95;63.39;100355.69;1834041;77;22239;-58
2021/07/12 04:04:51;;;;;;;10.82;8.90;;;;;;;24.08;63.13;100347.19;1831375;77;22519;-57
2021/07/12 04:07:43;;;;;;;10.18;8.83;;;;;;;24.18;63.01;100351.42;1847395;77;22170;-57
2021/07/12 04:10:18;;;;;;;9.98;9.13;;;;;;;24.24;62.99;100351.00;1852864;77;22175;-58
2021/07/12 04:13:12;;;;;;;9.18;8.38;;;;;;;24.34;63.00;100354.77;1823156;77;22167;-58
2021/07/12 04:15:45;;;;;;;10.23;9.08;;;;;;;24.50;62.77;100350.49;1821027;77;22119;-58
2021/07/12 04:18:37;;;;;;;9.65;8.75;;;;;;;24.59;62.57;100351.66;1816925;77;22218;-58
2021/07/12 04:21:12;;;;;;;13.88;8.88;;;;;;;24.69;62.47;100349.19;1852833;77;22179;-58
2021/07/12 04:23:46;;;;;;;9.80;8.50;;;;;;;24.82;62.18;100344.27;1801082;77;22221;-57
2021/07/12 04:26:38;;;;;;;9.65;8.80;;;;;;;24.96;61.98;100345.47;1834433;77;22136;-57
2021/07/12 04:29:11;;;;;;;9.73;8.83;;;;;;;25.14;61.56;100349.13;1789697;77;22214;-58
2021/07/12 04:31:44;;;;;;;9.65;8.75;;;;;;;25.25;61.18;100343.78;1834446;77;22179;-57
2021/07/12 04:34:37;;;;;;;9.48;8.58;;;;;;;25.42;60.98;100343.01;1810579;77;22310;-59
2021/07/12 04:37:24;;;;;;;11.28;8.90;;;;;;;25.63;60.64;100347.28;1851653;77;22637;-59
2021/07/12 04:40:17;;;;;;;11.75;9.30;;;;;;;25.85;60.12;100343.80;1834487;77;22164;-59
2021/07/12 04:42:50;;;;;;;9.30;8.40;;;;;;;26.07;59.76;100338.93;1820334;77;22234;-59
2021/07/12 04:45:43;;;;;;;16.20;9.08;;;;;;;26.13;59.35;100338.48;1834411;77;22563;-58
2021/07/12 04:48:16;;;;;;;9.23;8.13;;;;;;;26.18;59.05;100340.80;1821684;77;22226;-58
2021/07/12 04:50:49;;;;;;;9.35;8.45;;;;;;;26.28;58.33;100341.80;1834439;77;22180;-58
2021/07/12 04:53:22;;;;;;;9.53;8.63;;;;;;;26.45;58.00;100345.01;1803252;77;22680;-58
2021/07/12 04:55:55;;;;;;;10.35;8.33;;;;;;;26.65;57.52;100342.05;1852817;77;22199;-58
2021/07/12 04:58:52;;;;;;;9.18;8.28;;;;;;;26.92;55.88;100348.90;1821909;78;22237;-59
2021/07/12 05:01:27;;;;;;;9.08;8.20;;;;;;;27.13;55.98;100339.52;1852696;77;22606;-58
2021/07/12 05:04:04;;;;;;;9.28;8.38;;;;;;;27.26;55.58;100337.15;1804852;77;22254;-58
2021/07/12 05:06:56;;;;;;;9.90;8.18;;;;;;;27.40;55.59;100331.93;1834513;77;20136;-60
2021/07/12 05:09:29;;;;;;;9.93;8.08;;;;;;;27.71;55.20;100333.39;1805221;77;22186;-60
2021/07/12 05:12:08;;;;;;;8.93;8.03;;;;;;;27.83;54.59;100336.41;1817241;77;22594;-57
2021/07/12 05:14:40;;;;;;;9.60;8.08;;;;;;;27.79;54.20;100332.25;1820731;77;22165;-59
2021/07/12 05:17:32;;;;;;;12.37;8.00;;;;;;;28.05;53.81;100330.47;1849778;77;22166;-59
2021/07/12 05:20:07;;;;;;;13.62;10.13;;;;;;;28.09;53.15;100322.45;1832368;77;22119;-59
2021/07/12 05:22:40;;;;;;;13.45;10.78;;;;;;;28.13;52.29;100323.09;1827337;77;22238;-60
2021/07/12 05:25:32;;;;;;;24.77;19.52;;;;;;;28.28;52.39;100314.11;1834453;77;22191;-65
2021/07/12 05:28:06;;;;;;;21.82;19.35;;;;;;;28.36;52.12;100317.00;1824182;77;22167;-62
2021/07/12 05:30:58;;;;;;;38.88;32.70;;;;;;;28.67;51.58;100315.59;1816477;77;22566;-59
2021/07/12 05:33:31;;;;;;;27.85;24.65;;;;;;;29.01;51.00;100311.71;1818361;77;22206;-58
2021/07/12 05:36:04;;;;;;;27.73;25.02;;;;;;;29.03;50.76;100322.75;1834625;77;22175;-61
2021/07/12 05:38:37;;;;;;;26.52;23.92;;;;;;;29.31;50.53;100322.06;1831119;77;22202;-58
2021/07/12 05:41:49;;;;;;;17.45;13.32;;;;;;;29.50;50.91;100333.43;1824759;77;22616;-60
2021/07/12 05:44:22;;;;;;;12.18;9.53;;;;;;;29.78;50.33;100328.98;1806210;77;22202;-58
2021/07/12 05:47:14;;;;;;;11.05;8.73;;;;;;;30.18;49.26;100330.26;1841980;77;22260;-62
2021/07/12 05:49:48;;;;;;;8.98;7.95;;;;;;;30.46;48.73;100332.50;1826304;77;22171;-58
2021/07/12 05:52:21;;;;;;;12.45;9.33;;;;;;;30.60;48.31;100331.70;1834103;77;22583;-60
2021/07/12 05:55:14;;;;;;;42.35;38.50;;;;;;;30.74;48.22;100326.25;1834453;77;22172;-57
2021/07/12 05:57:47;;;;;;;29.07;26.37;;;;;;;30.93;47.94;100326.63;1828333;77;22226;-60
2021/07/12 06:00:40;;;;;;;20.12;18.25;;;;;;;31.13;47.69;100321.91;1830332;77;22155;-58
2021/07/12 06:03:13;;;;;;;13.22;11.33;;;;;;;31.34;47.67;100331.14;1822454;77;22206;-60
2021/07/12 06:05:46;;;;;;;12.95;11.48;;;;;;;31.44;46.97;100323.77;1834582;77;22627;-60
2021/07/12 06:08:19;;;;;;;11.10;9.28;;;;;;;31.64;46.85;100337.69;1820578;77;22195;-58
2021/07/12 06:11:11;;;;;;;9.85;8.95;;;;;;;31.59;46.90;100331.34;1827189;77;22203;-58
2021/07/12 06:13:45;;;;;;;10.40;8.63;;;;;;;31.74;46.82;100329.80;1815139;77;22194;-60
2021/07/12 06:16:18;;;;;;;9.38;8.30;;;;;;;31.91;47.25;100335.37;1822468;77;22195;-58
2021/07/12 06:18:51;;;;;;;9.33;8.33;;;;;;;32.20;46.90;100338.26;1809182;77;22229;-60
2021/07/12 06:21:26;;;;;;;8.75;7.87;;;;;;;32.53;46.64;100334.36;1833942;77;22188;-58
2021/07/12 06:24:05;;;;;;;9.70;7.58;;;;;;;32.86;45.36;100333.16;1809910;77;22162;-60
2021/07/12 06:26:57;;;;;;;7.97;7.17;;;;;;;33.30;44.69;100329.30;1834361;77;22567;-61
2021/07/12 06:29:30;;;;;;;9.23;7.45;;;;;;;33.73;43.52;100328.30;1790084;77;22230;-58
2021/07/12 06:32:05;;;;;;;7.47;6.78;;;;;;;34.04;42.58;100323.49;1805166;77;22218;-58
2021/07/12 06:34:57;;;;;;;8.63;6.70;;;;;;;34.36;42.84;100328.54;1829657;77;22512;-58
2021/07/12 06:37:31;;;;;;;6.60;6.00;;;;;;;34.78;42.57;100324.61;1831914;77;22189;-61
2021/07/12 06:40:23;;;;;;;7.05;6.35;;;;;;;35.06;41.63;100323.28;1823818;77;22159;-60
2021/07/12 06:42:56;;;;;;;8.15;7.33;;;;;;;35.36;40.95;100325.59;1844025;77;22606;-60
2021/07/12 06:45:49;;;;;;;7.72;6.70;;;;;;;35.40;40.17;100326.94;1824469;77;22163;-58
2021/07/12 06:48:22;;;;;;;7.60;6.70;;;;;;;35.47;40.12;100328.97;1819001;77;22238;-58
2021/07/12 06:51:15;;;;;;;9.23;6.53;;;;;;;35.28;39.96;100334.73;1831760;77;23303;-60
2021/07/12 06:53:49;;;;;;;8.83;6.50;;;;;;;35.24;40.04;100331.19;1814403;77;22253;-60
2021/07/12 06:56:22;;;;;;;9.13;6.08;;;;;;;35.14;40.19;100339.11;1852386;77;22211;-60
2021/07/12 06:58:55;;;;;;;7.45;6.03;;;;;;;35.00;40.03;100341.24;1805177;77;22214;-57
2021/07/12 07:01:50;;;;;;;14.65;6.15;;;;;;;35.07;40.29;100334.02;1852109;77;22179;-60
2021/07/12 07:04:24;;;;;;;10.80;7.40;;;;;;;35.01;40.28;100337.48;1791043;77;38562;-60
2021/07/12 07:07:17;;;;;;;9.95;6.95;;;;;;;34.94;40.52;100333.23;1833138;77;22188;-58
2021/07/12 07:09:50;;;;;;;14.30;7.05;;;;;;;34.88;40.87;100334.48;1830995;77;22623;-57
2021/07/12 07:12:24;;;;;;;8.40;6.92;;;;;;;34.76;40.93;100339.47;1821563;77;22214;-60
2021/07/12 07:14:57;;;;;;;8.30;7.40;;;;;;;34.59;41.32;100341.44;1834371;77;22176;-57
2021/07/12 07:17:30;;;;;;;8.10;7.40;;;;;;;34.36;41.78;100341.66;1841059;77;22169;-58
2021/07/12 07:20:05;;;;;;;8.38;7.17;;;;;;;34.29;42.30;100347.48;1834323;77;22191;-58
2021/07/12 07:22:38;;;;;;;7.83;7.03;;;;;;;34.30;42.38;100344.26;1830207;77;22184;-58
2021/07/12 07:25:13;;;;;;;7.55;6.75;;;;;;;34.30;42.72;100351.09;1834397;77;22199;-58
2021/07/12 07:28:06;;;;;;;7.58;6.87;;;;;;;34.58;42.68;100350.16;1824495;78;22531;-58
2021/07/12 07:30:40;;;;;;;7.78;6.95;;;;;;;34.99;42.11;100352.71;1828826;77;22209;-58
2021/07/12 07:33:32;;;;;;;7.37;6.30;;;;;;;35.43;42.04;100351.19;1802211;77;22266;-58
2021/07/12 07:36:06;;;;;;;8.20;6.55;;;;;;;36.12;40.06;100352.69;1828716;77;22147;-58
2021/07/12 07:38:58;;;;;;;6.42;5.10;;;;;;;36.83;38.82;100348.05;1812007;77;22234;-58
2021/07/12 07:41:33;;;;;;;7.42;4.70;;;;;;;37.46;37.84;100351.63;1834304;77;22203;-58
2021/07/12 07:44:06;;;;;;;6.60;5.22;;;;;;;37.90;36.42;100344.69;1803377;77;22210;-61
2021/07/12 07:46:40;;;;;;;6.97;5.03;;;;;;;38.51;35.85;100353.66;1834915;77;22621;-62
2021/07/12 07:49:13;;;;;;;6.17;4.62;;;;;;;38.92;34.33;100353.30;1808851;77;22264;-58
2021/07/12 07:51:46;;;;;;;7.67;5.05;;;;;;;39.30;33.21;100350.53;1852087;77;22187;-58
2021/07/12 07:54:38;;;;;;;6.75;5.03;;;;;;;39.54;32.84;100343.59;1815328;77;22223;-62
2021/07/12 07:57:11;;;;;;;6.90;5.05;;;;;;;39.76;32.73;100345.27;1852473;77;22187;-57
2021/07/12 08:00:07;;;;;;;8.48;5.33;;;;;;;40.01;32.70;100348.23;1828712;77;22613;-62
2021/07/12 08:02:42;;;;;;;6.03;5.42;;;;;;;40.32;32.10;100347.25;1819317;77;22234;-58
2021/07/12 08:05:34;;;;;;;6.97;5.47;;;;;;;40.50;31.95;100336.34;1817563;77;22166;-57
2021/07/12 08:08:07;;;;;;;8.00;6.50;;;;;;;40.68;31.47;100343.09;1834656;77;22625;-61
2021/07/12 08:10:40;;;;;;;9.00;5.85;;;;;;;40.56;29.76;100338.23;1820750;77;22186;-61
2021/07/12 08:13:32;;;;;;;6.58;5.70;;;;;;;40.49;30.49;100336.58;1817052;77;22543;-58
2021/07/12 08:16:06;;;;;;;8.15;5.62;;;;;;;40.44;30.31;100331.18;1834429;77;22571;-62
2021/07/12 08:18:39;;;;;;;9.25;5.55;;;;;;;40.52;29.96;100331.45;1834426;77;22627;-58
2021/07/12 08:21:31;;;;;;;7.08;5.53;;;;;;;40.68;30.77;100323.24;1827792;77;22206;-57
2021/07/12 08:24:24;;;;;;;6.25;5.65;;;;;;;41.02;30.28;100327.19;1799185;77;22277;-62
2021/07/12 08:26:59;;;;;;;7.08;5.22;;;;;;;41.34;30.14;100331.34;1852911;77;22123;-57
2021/07/12 08:29:51;;;;;;;5.05;4.55;;;;;;;41.70;29.63;100324.80;1834407;77;22136;-62
2021/07/12 08:32:24;;;;;;;8.00;5.47;;;;;;;42.02;29.22;100334.38;1829949;77;22174;-62
2021/07/12 08:34:58;;;;;;;7.05;5.05;;;;;;;42.32;28.49;100330.88;1852868;77;22179;-58
2021/07/12 08:37:32;;;;;;;6.20;4.70;;;;;;;42.61;27.87;100329.79;1831704;77;22176;-62
2021/07/12 08:40:24;;;;;;;5.87;4.78;;;;;;;42.96;27.02;100326.89;1827648;77;22139;-57
2021/07/12 08:42:59;;;;;;;7.08;4.90;;;;;;;43.07;26.67;100321.38;1825066;77;22602;-62
2021/07/12 08:45:32;;;;;;;6.95;5.05;;;;;;;43.29;26.71;100315.30;1852676;77;22579;-58
2021/07/12 08:48:06;;;;;;;5.67;5.17;;;;;;;43.36;26.44;100317.98;1824142;77;22147;-58
2021/07/12 08:50:58;;;;;;;10.08;5.03;;;;;;;43.56;26.63;100307.94;1833680;77;22659;-61
2021/07/12 08:53:31;;;;;;;6.03;4.90;;;;;;;43.77;26.22;100309.81;1834785;77;22331;-58
2021/07/12 08:56:23;;;;;;;6.25;5.10;;;;;;;43.82;25.90;100308.55;1834334;77;22069;-58
2021/07/12 08:58:56;;;;;;;7.03;4.92;;;;;;;43.98;25.84;100313.36;1800608;77;22141;-62
2021/07/12 09:02:11;;;;;;;8.80;4.95;;;;;;;44.08;25.83;100312.77;1833660;77;22254;-62
2021/07/12 09:04:52;;;;;;;6.58;5.17;;;;;;;44.25;25.38;100309.24;1819413;77;22173;-58
2021/07/12 09:07:27;;;;;;;6.92;5.25;;;;;;;44.37;25.51;100307.81;1831192;77;22067;-58
2021/07/12 09:10:21;;;;;;;6.65;5.25;;;;;;;44.39;24.74;100305.08;1834326;77;22694;-62
2021/07/12 09:12:55;;;;;;;6.90;5.08;;;;;;;44.46;24.84;100311.92;1822010;77;22184;-62
2021/07/12 09:15:47;;;;;;;6.12;5.37;;;;;;;44.69;25.11;100308.73;1834430;77;22580;-59
2021/07/12 09:18:20;;;;;;;6.97;5.22;;;;;;;44.80;24.61;100313.95;1804738;77;22190;-64
2021/07/12 09:20:53;;;;;;;7.80;4.53;;;;;;;44.94;24.53;100315.90;1830875;77;22238;-64
2021/07/12 09:23:26;;;;;;;7.35;5.05;;;;;;;44.82;23.43;100306.22;1837236;77;22268;-59
2021/07/12 09:26:04;;;;;;;6.12;5.53;;;;;;;44.71;23.91;100312.97;1823747;77;22135;-59
2021/07/12 09:28:56;;;;;;;6.65;5.47;;;;;;;44.67;23.65;100310.38;1812728;77;22380;-63
2021/07/12 09:31:31;;;;;;;9.85;5.17;;;;;;;44.50;23.63;100313.11;1830094;77;22211;-59
2021/07/12 09:34:23;;;;;;;5.83;4.45;;;;;;;44.52;24.55;100312.85;1804952;77;22296;-58
2021/07/12 09:36:56;;;;;;;11.22;5.47;;;;;;;44.84;23.76;100303.48;1834373;77;22286;-59
2021/07/12 09:39:45;;;;;;;6.97;5.20;;;;;;;45.01;23.87;100308.26;1804417;77;22772;-59
2021/07/12 09:42:40;;;;;;;5.42;4.92;;;;;;;45.27;23.50;100312.31;1830224;77;22291;-64
2021/07/12 09:45:34;;;;;;;6.75;4.97;;;;;;;45.46;23.83;100312.06;1792250;77;22118;-59
2021/07/12 09:48:08;;;;;;;6.03;5.40;;;;;;;45.67;23.98;100313.25;1841248;77;22186;-64
2021/07/12 09:50:51;;;;;;;6.03;5.42;;;;;;;45.74;23.08;100311.14;1836014;77;22126;-63
2021/07/12 09:53:44;;;;;;;5.92;4.92;;;;;;;45.84;22.86;100313.21;1823640;77;22226;-64
2021/07/12 09:56:18;;;;;;;6.33;4.95;;;;;;;46.01;21.42;100310.38;1805751;77;22313;-63
2021/07/12 09:58:56;;;;;;;8.08;5.40;;;;;;;45.82;22.65;100310.41;1811597;77;22336;-63
2021/07/12 10:01:29;;;;;;;8.63;5.35;;;;;;;45.68;22.93;100312.72;1834290;77;22572;-63
2021/07/12 10:04:03;;;;;;;5.42;4.58;;;;;;;45.58;22.94;100311.97;1811171;77;22595;-66
2021/07/12 10:06:55;;;;;;;5.47;4.97;;;;;;;45.58;21.97;100310.58;1834365;77;22102;-66
2021/07/12 10:09:29;;;;;;;5.35;4.58;;;;;;;45.43;22.03;100309.27;1825306;77;22331;-66
2021/07/12 10:12:21;;;;;;;5.90;5.30;;;;;;;45.29;22.23;100305.96;1833932;77;22100;-66
2021/07/12 10:14:55;;;;;;;5.83;4.97;;;;;;;45.10;21.88;100305.91;1852748;77;22144;-65
2021/07/12 10:17:28;;;;;;;7.78;5.37;;;;;;;45.09;22.09;100296.72;1830181;77;23373;-66
2021/07/12 10:20:02;;;;;;;5.80;4.90;;;;;;;44.95;21.90;100290.65;1852758;77;22713;-65
2021/07/12 10:22:36;;;;;;;5.85;5.25;;;;;;;44.79;22.05;100294.23;1830855;77;22851;-66
2021/07/12 10:25:31;;;;;;;7.20;4.87;;;;;;;44.92;21.57;100291.71;1842605;78;22246;-65
2021/07/12 10:28:08;;;;;;;7.15;4.50;;;;;;;44.84;20.67;100290.13;1810527;77;20130;-65
2021/07/12 10:30:47;;;;;;;7.37;5.60;;;;;;;44.70;21.65;100284.92;1819794;77;22124;-65
2021/07/12 10:33:30;;;;;;;6.03;5.20;;;;;;;44.56;20.12;100280.75;1820666;77;22143;-66
2021/07/12 10:36:06;;;;;;;5.83;4.90;;;;;;;44.33;22.09;100281.13;1817866;77;22143;-66
2021/07/12 10:41:28;;;;;;;9.10;5.75;;;;;;;45.12;23.05;100275.95;1834362;77;22739;-65
2021/07/12 10:44:01;;;;;;;6.22;5.22;;;;;;;45.48;20.61;100272.38;1829258;77;22137;-65
2021/07/12 10:46:54;;;;;;;5.40;4.83;;;;;;;45.54;21.28;100276.05;1820075;77;22104;-65
2021/07/12 10:49:47;;;;;;;6.30;4.87;;;;;;;45.33;20.67;100271.59;1917527;74;22199;-66
2021/07/12 10:52:42;;;;;;;6.05;4.45;;;;;;;45.20;21.55;100269.12;1852355;77;22097;-65
2021/07/12 10:55:34;;;;;;;5.62;4.95;;;;;;;45.53;21.16;100263.26;1794521;77;22512;-65
2021/07/12 10:58:37;;;;;;;7.40;5.37;;;;;;;44.88;21.93;100262.77;1837144;77;23179;-65
2021/07/12 11:01:12;;;;;;;6.08;4.72;;;;;;;44.90;23.15;100265.58;1834399;77;22097;-66
2021/07/12 11:03:51;;;;;;;5.80;5.20;;;;;;;45.55;22.88;100264.70;1803943;77;28188;-65
2021/07/12 11:06:27;;;;;;;8.10;5.22;;;;;;;46.27;22.06;100269.03;1834331;77;22722;-66
2021/07/12 11:09:38;;;;;;;6.08;5.47;;;;;;;46.69;21.40;100276.45;1793948;77;22587;-66
2021/07/12 11:12:41;;;;;;;6.28;4.55;;;;;;;46.54;19.67;100270.19;1841081;78;22744;-66
2021/07/12 11:15:31;;;;;;;8.63;4.78;;;;;;;46.23;20.10;100267.87;1834385;77;22702;-65
2021/07/12 11:18:10;;;;;;;6.22;4.75;;;;;;;46.04;20.54;100270.11;1842428;77;22336;-66
2021/07/12 11:20:51;;;;;;;5.55;4.47;;;;;;;46.27;20.80;100273.20;1852708;77;22270;-66
2021/07/12 11:23:52;;;;;;;5.10;4.60;;;;;;;46.73;20.38;100265.91;1816826;77;22348;-58
2021/07/12 11:26:31;;;;;;;4.78;3.90;;;;;;;47.12;20.53;100259.31;1829714;77;22281;-59
2021/07/12 11:29:36;;;;;;;4.78;4.10;;;;;;;47.58;20.33;100251.83;1810795;77;22776;-58
2021/07/12 11:32:09;;;;;;;5.58;4.45;;;;;;;47.89;20.00;100250.64;1813587;77;22120;-58
2021/07/12 11:34:49;;;;;;;6.22;4.60;;;;;;;47.82;20.03;100250.59;1819779;77;22181;-59
2021/07/12 11:37:26;;;;;;;9.35;4.17;;;;;;;47.42;19.28;100252.30;1833654;77;22118;-59
2021/07/12 11:40:00;;;;;;;3.92;3.50;;;;;;;47.02;18.52;100246.70;1851724;77;22084;-59
2021/07/12 11:42:39;;;;;;;4.80;3.92;;;;;;;46.66;19.06;100248.58;1822181;77;22131;-59
2021/07/12 11:45:19;;;;;;;4.30;3.90;;;;;;;46.63;19.00;100247.71;1827436;77;22147;-59
2021/07/12 11:48:17;;;;;;;5.85;4.33;;;;;;;46.51;20.59;100248.45;1802511;77;28685;-59
2021/07/12 11:50:50;;;;;;;5.83;4.10;;;;;;;46.93;20.11;100246.36;1832187;77;22096;-59
2021/07/12 11:53:23;;;;;;;6.50;3.95;;;;;;;46.96;20.91;100239.41;1819963;77;22115;-60
2021/07/12 11:55:57;;;;;;;7.08;4.15;;;;;;;47.58;20.68;100237.08;1852734;77;22119;-59
2021/07/12 11:58:31;;;;;;;5.10;3.90;;;;;;;47.89;19.85;100235.84;1816087;77;22281;-59
2021/07/12 12:01:26;;;;;;;5.55;3.70;;;;;;;47.99;19.28;100232.28;1806855;77;22105;-60
2021/07/12 12:04:09;;;;;;;6.33;4.40;;;;;;;48.13;19.69;100228.45;1809804;77;22519;-59
2021/07/12 12:07:22;;;;;;;7.22;4.28;;;;;;;48.26;19.37;100223.72;1826729;77;22087;-59
2021/07/12 12:10:09;;;;;;;6.72;4.12;;;;;;;48.02;19.71;100221.44;1847019;77;22085;-59
2021/07/12 12:12:51;;;;;;;6.83;4.20;;;;;;;47.80;20.07;100216.03;1847601;77;22137;-59
2021/07/12 12:15:34;;;;;;;7.25;4.53;;;;;;;47.55;20.15;100217.54;1834478;77;22192;-59
2021/07/12 12:18:29;;;;;;;8.38;5.10;;;;;;;47.35;20.21;100213.55;1806501;77;22198;-59
2021/07/12 12:21:03;;;;;;;5.70;5.17;;;;;;;47.12;20.75;100218.94;1837021;77;28026;-65
2021/07/12 12:23:56;;;;;;;5.37;4.62;;;;;;;46.91;20.56;100216.55;1812632;77;22154;-66
2021/07/12 12:26:29;;;;;;;4.35;3.92;;;;;;;46.75;20.86;100223.91;1812377;77;22124;-58
2021/07/12 12:29:06;;;;;;;5.62;4.28;;;;;;;46.76;21.10;100222.23;1811148;77;22139;-58
2021/07/12 12:31:37;;;;;;;8.23;4.75;;;;;;;47.04;21.02;100221.64;1834408;77;22161;-58
2021/07/12 12:34:33;;;;;;;6.17;4.65;;;;;;;47.21;20.88;100220.69;1794161;77;22323;-58
2021/07/12 12:37:12;;;;;;;5.67;4.37;;;;;;;47.25;21.09;100217.66;1831468;77;22136;-58
2021/07/12 12:39:45;;;;;;;6.00;4.55;;;;;;;47.33;21.03;100212.12;1909918;74;22110;-59
2021/07/12 12:42:27;;;;;;;6.22;4.90;;;;;;;47.19;20.72;100211.19;1834320;77;22144;-58